KDRO Airport (Durango-La Plata County) Information

FAA: DRO - ICAO: KDRO

KDRO Airport Location

State Colorado
County La Plata
City Durango
KDRO Airport is 10 miles southeast of Durango, CO.
Latitude 37-09-05.5000N
Longitude 107-45-13.6000W
Elevation 6,689ft

KDRO Airport METARs

METAR KDRO 240753Z AUTO 32006KT 10SM OVC100 16/M02 A3023 RMK AO2 SLP147 T01561022
Altimeter 30.23"
Temperature 15.6°C (60.1°F)
Wind 320° at 6KT
Clouds overcast at 10,000ft
Visibility 10.0mi
Time observed: 2021-09-24T07:53:00Z

KDRO Airport Details

Status Operational
Activation November 1946
Ownership Public
Usage Public
Chart DENVER
ATC on-site No
Beacon schedule sunset-sunrise
Beacon color clear green

KDRO Airport Contacts

Owner DURANGO CITY LA PLATA CO
Owner address 1000 AIRPORT ROAD BOX 15, DURANGO, CO 81303
Owner phone 970-382-6050
Manager R A ANDERSON
Manager address BOX 86, DOVE CREEK, CO 81324
Manager phone 970-677-2282

KDRO Airport (Durango-La Plata County) Radio Frequencies

KDRO (Airport) Radio Frequencies

UNICOM 122.8
Common traffic advisory frequency (CTAF) 122.8